Time;durP1;ratioP1;P1;durP2;ratioP2;P2;SDS_P1;SDS_P2;PMS_P1;PMS_P2;Temp;Humidity;BMP_temperature;BMP_pressure;BME280_temperature;BME280_humidity;BME280_pressure;Samples;Min_cycle;Max_cycle;Signal;HPM_P1;HPM_P2
2023/09/08 00:01:02;;;;;;;2.97;1.70;;;;;;;;;;2069726;28;20030;-65
2023/09/08 00:02:21;;;;;;;2.13;1.63;;;;;;;;;;2062905;28;20050;-64
2023/09/08 00:03:39;;;;;;;4.40;1.98;;;;;;;;;;2068870;28;20108;-63
2023/09/08 00:04:58;;;;;;;2.08;1.88;;;;;;;;;;2070240;28;20387;-66
2023/09/08 00:06:17;;;;;;;4.53;1.67;;;;;;;;;;2071599;28;20033;-65
2023/09/08 00:07:36;;;;;;;6.25;2.10;;;;;;;;;;2071732;28;20030;-63
2023/09/08 00:08:55;;;;;;;2.42;1.70;;;;;;;;;;2070644;28;20041;-64
2023/09/08 00:10:14;;;;;;;2.47;2.00;;;;;;;;;;2074260;28;20033;-65
2023/09/08 00:11:33;;;;;;;4.30;1.88;;;;;;;;;;2069494;28;20030;-65
2023/09/08 00:12:52;;;;;;;4.50;1.60;;;;;;;;;;2069766;28;20029;-66
2023/09/08 00:14:11;;;;;;;2.22;1.92;;;;;;;;;;2071517;28;20026;-64
2023/09/08 00:15:33;;;;;;;3.60;1.70;;;;;;;;;;2068599;28;20042;-65
2023/09/08 00:16:54;;;;;;;3.08;1.65;;;;;;;;;;2071668;28;20038;-64
2023/09/08 00:18:13;;;;;;;2.33;1.60;;;;;;;;;;2071881;28;20030;-65
2023/09/08 00:19:32;;;;;;;2.70;1.58;;;;;;;;;;2070871;28;20030;-65
2023/09/08 00:20:51;;;;;;;2.67;1.60;;;;;;;;;;2070022;28;20383;-64
2023/09/08 00:22:10;;;;;;;4.13;2.20;;;;;;;;;;2071335;28;20030;-64
2023/09/08 00:23:29;;;;;;;3.53;1.85;;;;;;;;;;2067165;28;20038;-63
2023/09/08 00:24:48;;;;;;;3.35;1.95;;;;;;;;;;2070642;28;20498;-64
2023/09/08 00:26:07;;;;;;;4.65;2.13;;;;;;;;;;2069983;28;20026;-64
2023/09/08 00:27:26;;;;;;;4.30;1.90;;;;;;;;;;2068493;28;20030;-64
2023/09/08 00:28:45;;;;;;;2.30;1.70;;;;;;;;;;2062327;28;20444;-63
2023/09/08 00:30:04;;;;;;;3.25;2.10;;;;;;;;;;2064210;28;20038;-65
2023/09/08 00:31:23;;;;;;;5.47;2.30;;;;;;;;;;2070889;28;20038;-65
2023/09/08 00:32:42;;;;;;;2.22;1.88;;;;;;;;;;2072851;28;20402;-64
2023/09/08 00:34:01;;;;;;;2.53;2.10;;;;;;;;;;2071502;28;20022;-65
2023/09/08 00:35:20;;;;;;;2.40;1.90;;;;;;;;;;2069478;28;20030;-66
2023/09/08 00:36:39;;;;;;;3.45;2.15;;;;;;;;;;2069733;28;20503;-65
2023/09/08 00:37:58;;;;;;;5.45;2.08;;;;;;;;;;2061059;28;20034;-64
2023/09/08 00:39:17;;;;;;;4.88;1.88;;;;;;;;;;2065450;28;20128;-64
2023/09/08 00:40:36;;;;;;;3.00;2.00;;;;;;;;;;2071182;28;20051;-65
2023/09/08 00:41:54;;;;;;;4.03;1.83;;;;;;;;;;2071480;28;20034;-64
2023/09/08 00:43:13;;;;;;;4.05;2.58;;;;;;;;;;2070530;28;20026;-64
2023/09/08 00:44:33;;;;;;;3.42;2.10;;;;;;;;;;2070417;28;20030;-65
2023/09/08 00:45:53;;;;;;;6.65;2.38;;;;;;;;;;2070301;28;20455;-66
2023/09/08 00:47:13;;;;;;;2.67;2.10;;;;;;;;;;2070630;28;20538;-64
2023/09/08 00:48:32;;;;;;;3.50;2.28;;;;;;;;;;2071078;28;20034;-65
2023/09/08 00:49:51;;;;;;;2.17;1.98;;;;;;;;;;2071145;28;20033;-64
2023/09/08 00:51:10;;;;;;;4.82;2.03;;;;;;;;;;2071990;28;20491;-64
2023/09/08 00:52:32;;;;;;;3.47;1.90;;;;;;;;;;2069822;28;20446;-65
2023/09/08 00:53:51;;;;;;;6.05;2.03;;;;;;;;;;2071580;28;20030;-65
2023/09/08 00:55:10;;;;;;;4.30;2.38;;;;;;;;;;2071329;28;20033;-64
2023/09/08 00:56:29;;;;;;;5.28;2.38;;;;;;;;;;2071072;28;20383;-64
2023/09/08 00:57:48;;;;;;;5.47;2.10;;;;;;;;;;2071074;28;20046;-64
2023/09/08 00:59:07;;;;;;;5.45;1.90;;;;;;;;;;2070627;28;20038;-65
2023/09/08 01:00:26;;;;;;;3.88;2.63;;;;;;;;;;2066670;28;20387;-66
2023/09/08 01:01:45;;;;;;;3.88;2.40;;;;;;;;;;2070142;28;20038;-65
2023/09/08 01:03:04;;;;;;;5.80;2.20;;;;;;;;;;2071040;28;20034;-64
2023/09/08 01:04:22;;;;;;;3.72;1.90;;;;;;;;;;2068584;28;20216;-66
2023/09/08 01:05:42;;;;;;;5.90;2.90;;;;;;;;;;2072801;28;20038;-65
2023/09/08 01:07:01;;;;;;;3.78;2.78;;;;;;;;;;2069403;28;20034;-65
2023/09/08 01:08:20;;;;;;;4.82;2.33;;;;;;;;;;2069357;28;20491;-64
2023/09/08 01:09:39;;;;;;;3.08;2.30;;;;;;;;;;2069535;28;20029;-65
2023/09/08 01:10:59;;;;;;;3.15;1.80;;;;;;;;;;2068593;28;20113;-66
2023/09/08 01:12:18;;;;;;;2.83;2.40;;;;;;;;;;2070640;28;20495;-65
2023/09/08 01:13:37;;;;;;;4.80;2.45;;;;;;;;;;2062970;28;20498;-65
2023/09/08 01:14:57;;;;;;;4.40;2.63;;;;;;;;;;2065792;28;20029;-65
2023/09/08 01:16:15;;;;;;;2.80;2.60;;;;;;;;;;2070515;28;20067;-65
2023/09/08 01:17:35;;;;;;;2.60;2.40;;;;;;;;;;2070545;28;20033;-65
2023/09/08 01:18:54;;;;;;;3.00;2.40;;;;;;;;;;2070489;28;20026;-64
2023/09/08 01:20:24;;;;;;;4.07;2.50;;;;;;;;;;2070361;28;20030;-64
2023/09/08 01:21:53;;;;;;;4.63;2.78;;;;;;;;;;2071235;28;20057;-65
2023/09/08 01:23:21;;;;;;;2.63;2.25;;;;;;;;;;2070147;28;20038;-65
2023/09/08 01:24:43;;;;;;;7.28;3.10;;;;;;;;;;2067815;28;20446;-64
2023/09/08 01:26:10;;;;;;;5.95;2.80;;;;;;;;;;2068502;28;20033;-65
2023/09/08 01:27:32;;;;;;;2.83;2.60;;;;;;;;;;2068752;28;20026;-64
2023/09/08 01:28:52;;;;;;;2.85;2.65;;;;;;;;;;2069185;28;20038;-64
2023/09/08 01:30:12;;;;;;;3.38;2.70;;;;;;;;;;2069522;28;20038;-64
2023/09/08 01:31:32;;;;;;;5.85;2.78;;;;;;;;;;2071302;28;20486;-63
2023/09/08 01:32:51;;;;;;;3.28;2.95;;;;;;;;;;2071399;28;20053;-64
2023/09/08 01:34:13;;;;;;;3.60;3.30;;;;;;;;;;2070713;28;20034;-65
2023/09/08 01:35:32;;;;;;;4.93;3.15;;;;;;;;;;2072148;28;20383;-65
2023/09/08 01:36:51;;;;;;;6.22;2.95;;;;;;;;;;2072111;28;20034;-64
2023/09/08 01:38:10;;;;;;;3.28;2.97;;;;;;;;;;2067211;28;22636;-64
2023/09/08 01:39:29;;;;;;;3.45;2.85;;;;;;;;;;2073322;28;20038;-65
2023/09/08 01:40:48;;;;;;;4.70;3.05;;;;;;;;;;2070217;28;20038;-65
2023/09/08 01:42:07;;;;;;;5.95;3.40;;;;;;;;;;2070635;28;20049;-64
2023/09/08 01:43:26;;;;;;;3.60;3.28;;;;;;;;;;2070263;28;20022;-65
2023/09/08 01:44:45;;;;;;;6.65;3.35;;;;;;;;;;2069772;28;20038;-64
2023/09/08 01:46:04;;;;;;;7.05;3.45;;;;;;;;;;2070789;28;20884;-65
2023/09/08 01:47:23;;;;;;;3.25;2.97;;;;;;;;;;2067626;28;20626;-64
2023/09/08 01:48:42;;;;;;;3.85;3.30;;;;;;;;;;2070828;28;20030;-65
2023/09/08 01:50:01;;;;;;;5.05;3.15;;;;;;;;;;2072066;28;20037;-63
2023/09/08 01:51:20;;;;;;;4.18;3.60;;;;;;;;;;2070084;28;20112;-65
2023/09/08 01:52:39;;;;;;;4.85;3.30;;;;;;;;;;2071833;28;20041;-66
2023/09/08 01:53:58;;;;;;;3.78;3.20;;;;;;;;;;2071061;28;20018;-65
2023/09/08 01:55:17;;;;;;;7.47;3.60;;;;;;;;;;2072037;28;20033;-64
2023/09/08 01:56:36;;;;;;;3.83;3.50;;;;;;;;;;2070036;28;20034;-65
2023/09/08 01:57:56;;;;;;;5.05;3.78;;;;;;;;;;2068336;28;20085;-65
2023/09/08 01:59:15;;;;;;;5.72;3.92;;;;;;;;;;2068694;28;20483;-66
2023/09/08 02:00:33;;;;;;;5.70;3.47;;;;;;;;;;2070273;28;20030;-64
2023/09/08 02:01:53;;;;;;;6.85;3.40;;;;;;;;;;2069390;28;20046;-64
2023/09/08 02:03:11;;;;;;;4.15;3.75;;;;;;;;;;2069968;28;20030;-65
2023/09/08 02:04:30;;;;;;;5.03;3.75;;;;;;;;;;2071137;28;20026;-65
2023/09/08 02:05:49;;;;;;;5.18;3.47;;;;;;;;;;2070351;28;20057;-65
2023/09/08 02:07:08;;;;;;;4.53;4.05;;;;;;;;;;2070424;28;20510;-65
2023/09/08 02:08:27;;;;;;;4.90;3.70;;;;;;;;;;2068703;28;20033;-64
2023/09/08 02:09:46;;;;;;;4.03;3.67;;;;;;;;;;2062851;28;20062;-64
2023/09/08 02:11:05;;;;;;;8.68;4.22;;;;;;;;;;2067680;28;20034;-65
2023/09/08 02:12:24;;;;;;;7.18;4.28;;;;;;;;;;2066861;28;20029;-64
2023/09/08 02:13:43;;;;;;;4.47;3.97;;;;;;;;;;2069466;28;20178;-65
2023/09/08 02:15:03;;;;;;;7.13;4.38;;;;;;;;;;2070021;28;20065;-64
2023/09/08 02:16:22;;;;;;;4.55;4.15;;;;;;;;;;2069963;28;20038;-66
2023/09/08 02:17:41;;;;;;;5.60;4.20;;;;;;;;;;2067355;28;20034;-64
2023/09/08 02:19:00;;;;;;;5.43;4.28;;;;;;;;;;2070505;28;20033;-64
2023/09/08 02:20:19;;;;;;;6.20;4.18;;;;;;;;;;2067815;28;20030;-65
2023/09/08 02:21:38;;;;;;;4.55;4.15;;;;;;;;;;2070571;28;20030;-64
2023/09/08 02:22:57;;;;;;;9.00;4.40;;;;;;;;;;2069459;28;20117;-64
2023/09/08 02:24:17;;;;;;;7.70;4.80;;;;;;;;;;2068953;28;20026;-64
2023/09/08 02:25:35;;;;;;;4.53;4.22;;;;;;;;;;2070609;28;20034;-65
2023/09/08 02:26:54;;;;;;;5.57;4.55;;;;;;;;;;2069204;28;20021;-64
2023/09/08 02:28:13;;;;;;;6.75;5.10;;;;;;;;;;2067149;28;20081;-64
2023/09/08 02:29:32;;;;;;;5.57;4.15;;;;;;;;;;2069235;28;20506;-64
2023/09/08 02:30:51;;;;;;;8.02;4.40;;;;;;;;;;2072330;28;20073;-65
2023/09/08 02:32:10;;;;;;;6.35;4.05;;;;;;;;;;2068840;28;20030;-63
2023/09/08 02:33:29;;;;;;;6.63;5.15;;;;;;;;;;2068422;28;20022;-65
2023/09/08 02:34:49;;;;;;;9.50;5.35;;;;;;;;;;2071252;28;20038;-64
2023/09/08 02:36:08;;;;;;;8.10;4.80;;;;;;;;;;2070849;28;20030;-64
2023/09/08 02:37:27;;;;;;;6.18;4.63;;;;;;;;;;2069700;28;20437;-64
2023/09/08 02:38:46;;;;;;;5.68;4.75;;;;;;;;;;2070856;28;20037;-65
2023/09/08 02:40:06;;;;;;;5.05;4.65;;;;;;;;;;2072245;28;20058;-65
2023/09/08 02:41:24;;;;;;;6.93;3.92;;;;;;;;;;2069206;28;20604;-65
2023/09/08 02:42:43;;;;;;;5.95;5.22;;;;;;;;;;2069811;28;20070;-64
2023/09/08 02:44:02;;;;;;;8.00;4.78;;;;;;;;;;2069306;28;20034;-65
2023/09/08 02:45:21;;;;;;;5.35;4.57;;;;;;;;;;2068960;28;20018;-65
2023/09/08 02:46:40;;;;;;;7.22;5.32;;;;;;;;;;2069257;28;20030;-64
2023/09/08 02:47:59;;;;;;;6.35;5.75;;;;;;;;;;2070911;28;20018;-64
2023/09/08 02:49:18;;;;;;;6.07;5.55;;;;;;;;;;2070513;28;20037;-64
2023/09/08 02:50:37;;;;;;;6.18;5.68;;;;;;;;;;2071618;28;20038;-65
2023/09/08 02:51:56;;;;;;;6.60;5.93;;;;;;;;;;2072762;28;20041;-65
2023/09/08 02:53:15;;;;;;;6.38;5.65;;;;;;;;;;2070875;28;20038;-65
2023/09/08 02:54:35;;;;;;;5.65;5.18;;;;;;;;;;2069634;28;20037;-65
2023/09/08 02:55:54;;;;;;;6.65;5.32;;;;;;;;;;2070273;28;20026;-65
2023/09/08 02:57:14;;;;;;;6.97;5.95;;;;;;;;;;2070705;28;20041;-64
2023/09/08 02:58:35;;;;;;;6.72;6.07;;;;;;;;;;2068717;28;20026;-64
2023/09/08 02:59:56;;;;;;;7.55;6.10;;;;;;;;;;2068733;28;20038;-65
2023/09/08 03:01:20;;;;;;;8.18;6.20;;;;;;;;;;2070108;28;20022;-64
2023/09/08 03:02:38;;;;;;;6.20;5.70;;;;;;;;;;2070166;28;20026;-66
2023/09/08 03:03:57;;;;;;;6.20;5.47;;;;;;;;;;2069875;28;20560;-65
2023/09/08 03:05:17;;;;;;;7.60;6.38;;;;;;;;;;2070339;28;20030;-65
2023/09/08 03:06:36;;;;;;;10.70;6.53;;;;;;;;;;2068790;28;20038;-65
2023/09/08 03:07:55;;;;;;;6.90;5.75;;;;;;;;;;2069316;28;20030;-62
2023/09/08 03:09:14;;;;;;;9.75;6.95;;;;;;;;;;2070049;28;20054;-65
2023/09/08 03:10:34;;;;;;;6.85;6.03;;;;;;;;;;2072233;28;20041;-62
2023/09/08 03:11:53;;;;;;;8.80;6.80;;;;;;;;;;2071822;28;20030;-65
2023/09/08 03:13:12;;;;;;;7.00;6.30;;;;;;;;;;2068565;28;20034;-65
2023/09/08 03:14:31;;;;;;;9.93;6.97;;;;;;;;;;2069938;28;20030;-65
2023/09/08 03:15:50;;;;;;;8.35;7.28;;;;;;;;;;2071274;28;20033;-65
2023/09/08 03:17:09;;;;;;;8.48;6.75;;;;;;;;;;2068175;28;20113;-65
2023/09/08 03:18:28;;;;;;;7.70;6.95;;;;;;;;;;2067698;28;20026;-62
2023/09/08 03:19:46;;;;;;;8.55;7.32;;;;;;;;;;2072031;28;20498;-64
2023/09/08 03:21:09;;;;;;;11.73;8.10;;;;;;;;;;2071808;28;20558;-65
2023/09/08 03:22:28;;;;;;;10.48;8.05;;;;;;;;;;2072844;28;20104;-65
2023/09/08 03:23:47;;;;;;;9.05;8.18;;;;;;;;;;2070186;28;20112;-63
2023/09/08 03:25:06;;;;;;;7.88;6.53;;;;;;;;;;2070425;28;20038;-67
2023/09/08 03:26:25;;;;;;;8.80;7.93;;;;;;;;;;2071665;28;20211;-65
2023/09/08 03:27:44;;;;;;;9.65;7.85;;;;;;;;;;2072076;28;20030;-64
2023/09/08 03:29:03;;;;;;;8.93;7.88;;;;;;;;;;2073361;28;20041;-64
2023/09/08 03:30:22;;;;;;;8.77;8.00;;;;;;;;;;2072033;28;20026;-65
2023/09/08 03:31:41;;;;;;;9.60;8.20;;;;;;;;;;2073157;28;20410;-65
2023/09/08 03:33:00;;;;;;;9.57;8.32;;;;;;;;;;2073349;28;20591;-65
2023/09/08 03:34:20;;;;;;;9.55;7.68;;;;;;;;;;2072434;28;20517;-66
2023/09/08 03:35:39;;;;;;;10.23;7.82;;;;;;;;;;2067850;28;20065;-66
2023/09/08 03:36:58;;;;;;;8.95;8.05;;;;;;;;;;2069039;28;20033;-65
2023/09/08 03:38:17;;;;;;;9.60;7.90;;;;;;;;;;2069583;28;20065;-66
2023/09/08 03:39:36;;;;;;;9.30;8.27;;;;;;;;;;2071141;28;20081;-66
2023/09/08 03:40:55;;;;;;;11.80;8.80;;;;;;;;;;2072494;28;20034;-65
2023/09/08 03:42:14;;;;;;;9.15;8.32;;;;;;;;;;2072189;28;20046;-66
2023/09/08 03:43:33;;;;;;;11.32;7.93;;;;;;;;;;2070277;28;20030;-65
2023/09/08 03:44:52;;;;;;;10.68;8.60;;;;;;;;;;2070460;28;20034;-65
2023/09/08 03:46:11;;;;;;;14.68;8.82;;;;;;;;;;2072730;28;20025;-65
2023/09/08 03:47:30;;;;;;;10.32;8.80;;;;;;;;;;2070623;28;20038;-66
2023/09/08 03:48:49;;;;;;;11.45;9.80;;;;;;;;;;2072653;28;20038;-64
2023/09/08 03:50:08;;;;;;;10.45;9.35;;;;;;;;;;2073163;28;20033;-64
2023/09/08 03:51:27;;;;;;;9.55;8.63;;;;;;;;;;2072319;28;20042;-64
2023/09/08 03:52:47;;;;;;;12.70;9.52;;;;;;;;;;2070985;28;20057;-64
2023/09/08 03:54:06;;;;;;;11.68;9.35;;;;;;;;;;2073781;28;20042;-63
2023/09/08 03:55:24;;;;;;;12.25;8.93;;;;;;;;;;2073285;28;20033;-63
2023/09/08 03:56:43;;;;;;;10.70;9.55;;;;;;;;;;2071715;28;20429;-64
2023/09/08 03:58:02;;;;;;;11.10;9.43;;;;;;;;;;2069101;28;20634;-65
2023/09/08 03:59:21;;;;;;;9.57;8.50;;;;;;;;;;2069709;28;20531;-65
2023/09/08 04:00:40;;;;;;;10.55;9.32;;;;;;;;;;2072494;28;20030;-65
2023/09/08 04:02:01;;;;;;;12.95;9.40;;;;;;;;;;2070943;28;20022;-65
2023/09/08 04:03:20;;;;;;;10.23;9.23;;;;;;;;;;2070680;28;20395;-65
2023/09/08 04:04:39;;;;;;;11.48;9.93;;;;;;;;;;2070736;28;20471;-65
2023/09/08 04:05:57;;;;;;;10.48;9.45;;;;;;;;;;2070008;28;20026;-65
2023/09/08 04:07:16;;;;;;;9.65;8.70;;;;;;;;;;2062615;28;20495;-65
2023/09/08 04:08:35;;;;;;;10.27;8.90;;;;;;;;;;2067804;28;20037;-63
2023/09/08 04:09:54;;;;;;;10.73;9.52;;;;;;;;;;2072221;28;20105;-64
2023/09/08 04:11:13;;;;;;;10.00;8.85;;;;;;;;;;2072242;28;20443;-64
2023/09/08 04:12:32;;;;;;;10.25;9.15;;;;;;;;;;2070780;28;20026;-65
2023/09/08 04:13:51;;;;;;;10.40;9.30;;;;;;;;;;2070246;28;20505;-66
2023/09/08 04:15:10;;;;;;;11.25;9.63;;;;;;;;;;2068946;28;20026;-65
2023/09/08 04:16:29;;;;;;;13.35;9.48;;;;;;;;;;2069898;28;20389;-66
2023/09/08 04:17:48;;;;;;;12.18;9.70;;;;;;;;;;2069266;28;20034;-65
2023/09/08 04:19:07;;;;;;;11.85;9.02;;;;;;;;;;2060791;28;20026;-65
2023/09/08 04:20:27;;;;;;;13.32;10.18;;;;;;;;;;2067301;28;20022;-65
2023/09/08 04:21:45;;;;;;;10.32;8.65;;;;;;;;;;2070417;28;20030;-65
2023/09/08 04:23:04;;;;;;;9.52;8.52;;;;;;;;;;2068965;28;20026;-63
2023/09/08 04:24:23;;;;;;;11.63;9.65;;;;;;;;;;2069716;28;20395;-65
2023/09/08 04:25:42;;;;;;;11.85;9.60;;;;;;;;;;2069557;28;20041;-63
2023/09/08 04:27:01;;;;;;;11.43;9.73;;;;;;;;;;2071915;28;20474;-65
2023/09/08 04:28:20;;;;;;;13.82;10.23;;;;;;;;;;2068789;28;20121;-64
2023/09/08 04:29:39;;;;;;;12.85;9.55;;;;;;;;;;2070846;28;20034;-65
2023/09/08 04:30:59;;;;;;;11.80;10.60;;;;;;;;;;2073720;28;20510;-65
2023/09/08 04:32:18;;;;;;;11.20;9.98;;;;;;;;;;2072190;28;20371;-64
2023/09/08 04:33:38;;;;;;;11.57;10.25;;;;;;;;;;2069702;28;20030;-64
2023/09/08 04:34:57;;;;;;;11.85;10.05;;;;;;;;;;2071250;28;20026;-64
2023/09/08 04:36:16;;;;;;;13.07;10.32;;;;;;;;;;2073519;28;20026;-64
2023/09/08 04:37:36;;;;;;;17.83;11.23;;;;;;;;;;2070820;28;20038;-64
2023/09/08 04:38:55;;;;;;;12.45;10.80;;;;;;;;;;2069942;28;20516;-63
2023/09/08 04:40:14;;;;;;;12.55;11.25;;;;;;;;;;2070402;28;20442;-62
2023/09/08 04:41:33;;;;;;;12.52;11.32;;;;;;;;;;2072316;28;20029;-61
2023/09/08 04:42:53;;;;;;;14.10;10.90;;;;;;;;;;2070999;28;20026;-63
2023/09/08 04:44:12;;;;;;;14.63;10.88;;;;;;;;;;2070964;28;20081;-64
2023/09/08 04:45:31;;;;;;;11.25;10.18;;;;;;;;;;2066832;28;20030;-64
2023/09/08 04:46:50;;;;;;;14.13;11.15;;;;;;;;;;2069455;28;20037;-62
2023/09/08 04:48:09;;;;;;;13.07;11.48;;;;;;;;;;2069146;28;20046;-64
2023/09/08 04:49:28;;;;;;;11.23;10.15;;;;;;;;;;2071570;28;20026;-65
2023/09/08 04:50:48;;;;;;;11.13;9.90;;;;;;;;;;2063810;28;20034;-65
2023/09/08 04:52:07;;;;;;;11.82;10.65;;;;;;;;;;2070012;28;20458;-65
2023/09/08 04:53:26;;;;;;;15.45;10.02;;;;;;;;;;2071798;28;20486;-65
2023/09/08 04:54:45;;;;;;;11.88;10.68;;;;;;;;;;2071381;28;20331;-64
2023/09/08 04:56:04;;;;;;;11.77;10.52;;;;;;;;;;2069587;28;20022;-65
2023/09/08 04:57:23;;;;;;;14.15;11.23;;;;;;;;;;2069810;28;20109;-65
2023/09/08 04:58:42;;;;;;;13.88;11.57;;;;;;;;;;2070731;28;20045;-65
2023/09/08 05:00:02;;;;;;;13.85;10.38;;;;;;;;;;2064162;28;20019;-65
2023/09/08 05:01:21;;;;;;;16.58;9.77;;;;;;;;;;2066980;28;20037;-74
2023/09/08 05:02:40;;;;;;;11.45;10.25;;;;;;;;;;2069014;28;20029;-72
2023/09/08 05:03:59;;;;;;;11.70;10.27;;;;;;;;;;2067166;28;20034;-70
2023/09/08 05:05:18;;;;;;;10.95;9.88;;;;;;;;;;2071566;28;20026;-73
2023/09/08 05:06:37;;;;;;;13.85;11.07;;;;;;;;;;2069419;28;20035;-74
2023/09/08 05:07:56;;;;;;;11.00;9.98;;;;;;;;;;2065919;28;20482;-73
2023/09/08 05:09:15;;;;;;;14.07;9.77;;;;;;;;;;2068648;28;20038;-74
2023/09/08 05:10:34;;;;;;;9.80;8.80;;;;;;;;;;2070933;28;20046;-73
2023/09/08 05:11:53;;;;;;;13.90;10.02;;;;;;;;;;2066095;28;20619;-73
2023/09/08 05:13:12;;;;;;;13.48;9.57;;;;;;;;;;2071804;28;20121;-75
2023/09/08 05:14:31;;;;;;;11.70;10.57;;;;;;;;;;2066235;28;20034;-73
2023/09/08 05:15:52;;;;;;;11.30;10.15;;;;;;;;;;2070079;28;20049;-72
2023/09/08 05:17:11;;;;;;;11.18;10.18;;;;;;;;;;2069404;28;20025;-67
2023/09/08 05:18:30;;;;;;;11.93;10.27;;;;;;;;;;2068825;28;20034;-74
2023/09/08 05:19:48;;;;;;;11.55;10.25;;;;;;;;;;2070602;28;20114;-74
2023/09/08 05:21:07;;;;;;;13.05;10.77;;;;;;;;;;2061889;28;20037;-72
2023/09/08 05:22:26;;;;;;;13.48;10.82;;;;;;;;;;2063754;28;20057;-72
2023/09/08 05:23:45;;;;;;;12.70;10.35;;;;;;;;;;2070331;28;20529;-68
2023/09/08 05:25:04;;;;;;;11.93;9.88;;;;;;;;;;2068416;28;20038;-73
2023/09/08 05:26:23;;;;;;;11.82;9.93;;;;;;;;;;2069823;28;20025;-75
2023/09/08 05:27:43;;;;;;;12.63;9.85;;;;;;;;;;2070281;28;20546;-68
2023/09/08 05:29:02;;;;;;;12.70;10.45;;;;;;;;;;2070760;28;20042;-74
2023/09/08 05:30:21;;;;;;;21.38;11.60;;;;;;;;;;2068169;28;20046;-73
2023/09/08 05:31:40;;;;;;;11.18;10.07;;;;;;;;;;2065516;28;20185;-71
2023/09/08 05:32:59;;;;;;;13.27;9.88;;;;;;;;;;2063214;28;20030;-70
2023/09/08 05:34:18;;;;;;;10.98;10.02;;;;;;;;;;2065138;28;20026;-68
2023/09/08 05:35:37;;;;;;;10.60;9.57;;;;;;;;;;2064752;28;20034;-74
2023/09/08 05:36:57;;;;;;;18.98;10.85;;;;;;;;;;2068198;28;20873;-68
2023/09/08 05:38:16;;;;;;;15.18;10.55;;;;;;;;;;2068143;28;20615;-70
2023/09/08 05:39:35;;;;;;;10.60;9.15;;;;;;;;;;2070433;28;20774;-74
2023/09/08 05:40:54;;;;;;;11.65;9.68;;;;;;;;;;2069270;28;20026;-73
2023/09/08 05:42:13;;;;;;;14.68;10.15;;;;;;;;;;2064136;28;20026;-74
2023/09/08 05:43:32;;;;;;;16.92;10.70;;;;;;;;;;2067695;28;20034;-74
2023/09/08 05:44:51;;;;;;;12.70;9.93;;;;;;;;;;2069614;28;20391;-67
2023/09/08 05:46:10;;;;;;;11.45;9.98;;;;;;;;;;2067472;28;20097;-67
2023/09/08 05:47:29;;;;;;;11.15;10.15;;;;;;;;;;2060992;28;20113;-68
2023/09/08 05:48:48;;;;;;;12.10;10.85;;;;;;;;;;2067509;28;20390;-73
2023/09/08 05:50:08;;;;;;;11.52;10.32;;;;;;;;;;2069070;28;20041;-73
2023/09/08 05:51:27;;;;;;;21.92;11.15;;;;;;;;;;2069724;28;20033;-70
2023/09/08 05:52:46;;;;;;;13.48;10.43;;;;;;;;;;2070562;28;20029;-73
2023/09/08 05:54:05;;;;;;;12.45;10.13;;;;;;;;;;2061942;28;20121;-69
2023/09/08 05:55:23;;;;;;;10.80;9.75;;;;;;;;;;2065972;28;20498;-74
2023/09/08 05:56:43;;;;;;;11.48;10.18;;;;;;;;;;2067743;28;20061;-70
2023/09/08 05:58:03;;;;;;;11.27;10.07;;;;;;;;;;2067699;28;20439;-69
2023/09/08 05:59:22;;;;;;;15.10;10.10;;;;;;;;;;2069508;28;20022;-74
2023/09/08 06:00:41;;;;;;;12.65;9.52;;;;;;;;;;2068215;28;20026;-75
2023/09/08 06:02:00;;;;;;;17.30;10.50;;;;;;;;;;2070831;28;20022;-69
2023/09/08 06:03:19;;;;;;;20.83;11.07;;;;;;;;;;2070183;28;20037;-73
2023/09/08 06:04:38;;;;;;;10.98;9.88;;;;;;;;;;2071609;28;20026;-73
2023/09/08 06:05:57;;;;;;;11.32;9.45;;;;;;;;;;2070201;28;20022;-74
2023/09/08 06:07:16;;;;;;;19.85;10.65;;;;;;;;;;2068216;28;20042;-72
2023/09/08 06:08:35;;;;;;;18.58;10.27;;;;;;;;;;2069753;28;20425;-74
2023/09/08 06:09:54;;;;;;;12.38;9.75;;;;;;;;;;2069024;28;20483;-74
2023/09/08 06:11:13;;;;;;;13.55;10.02;;;;;;;;;;2070143;28;20026;-73
2023/09/08 06:12:33;;;;;;;10.73;9.68;;;;;;;;;;2069402;28;20494;-72
2023/09/08 06:13:55;;;;;;;10.18;9.25;;;;;;;;;;2069934;28;20038;-74
2023/09/08 06:15:14;;;;;;;11.25;10.10;;;;;;;;;;2068341;28;20410;-74
2023/09/08 06:16:33;;;;;;;13.90;9.88;;;;;;;;;;2069566;28;20506;-72
2023/09/08 06:17:52;;;;;;;9.77;8.93;;;;;;;;;;2063707;28;20499;-74
2023/09/08 06:19:12;;;;;;;13.52;9.93;;;;;;;;;;2070383;28;20026;-74
2023/09/08 06:20:30;;;;;;;11.40;9.43;;;;;;;;;;2071824;28;20451;-69
2023/09/08 06:21:49;;;;;;;12.02;9.45;;;;;;;;;;2062740;28;20519;-73
2023/09/08 06:23:09;;;;;;;10.43;9.27;;;;;;;;;;2068076;28;20105;-73
2023/09/08 06:24:28;;;;;;;12.90;9.73;;;;;;;;;;2068055;28;20026;-74
2023/09/08 06:25:48;;;;;;;12.27;10.02;;;;;;;;;;2070295;28;20030;-73
2023/09/08 06:27:07;;;;;;;10.43;9.52;;;;;;;;;;2068449;28;20018;-72
2023/09/08 06:28:29;;;;;;;13.10;9.77;;;;;;;;;;2069770;28;20030;-74
2023/09/08 06:29:48;;;;;;;14.75;9.90;;;;;;;;;;2067245;28;20034;-70
2023/09/08 06:31:07;;;;;;;13.73;9.68;;;;;;;;;;2070393;28;20038;-73
2023/09/08 06:32:26;;;;;;;13.82;9.27;;;;;;;;;;2069560;28;20441;-73
2023/09/08 06:33:45;;;;;;;15.75;9.30;;;;;;;;;;2067665;28;20044;-70
2023/09/08 06:35:04;;;;;;;10.93;9.80;;;;;;;;;;2068209;28;20033;-72
2023/09/08 06:36:23;;;;;;;10.20;8.75;;;;;;;;;;2069563;28;20025;-73
2023/09/08 06:37:42;;;;;;;20.52;9.98;;;;;;;;;;2068742;28;20494;-73
2023/09/08 06:39:01;;;;;;;10.18;9.18;;;;;;;;;;2068376;28;20120;-70
2023/09/08 06:40:20;;;;;;;10.18;8.75;;;;;;;;;;2068351;28;20535;-71
2023/09/08 06:41:39;;;;;;;12.77;8.43;;;;;;;;;;2068494;28;20034;-73
2023/09/08 06:42:58;;;;;;;12.13;8.90;;;;;;;;;;2072345;28;20035;-71
2023/09/08 06:44:17;;;;;;;11.57;8.82;;;;;;;;;;2071203;28;20452;-73
2023/09/08 06:45:42;;;;;;;10.85;8.85;;;;;;;;;;2069834;28;20033;-73
2023/09/08 06:47:03;;;;;;;20.60;9.68;;;;;;;;;;2071254;28;20447;-72
2023/09/08 06:48:21;;;;;;;12.52;8.88;;;;;;;;;;2071118;28;20018;-73
2023/09/08 06:49:41;;;;;;;9.30;8.20;;;;;;;;;;2071408;28;20034;-73
2023/09/08 06:51:00;;;;;;;9.45;8.45;;;;;;;;;;2068694;28;20037;-71
2023/09/08 06:52:19;;;;;;;22.15;9.75;;;;;;;;;;2071795;28;20517;-74
2023/09/08 06:53:38;;;;;;;10.25;8.65;;;;;;;;;;2069572;28;20121;-74
2023/09/08 06:54:57;;;;;;;19.05;9.57;;;;;;;;;;2068160;28;20104;-73
2023/09/08 06:56:16;;;;;;;18.00;8.80;;;;;;;;;;2070389;28;20463;-73
2023/09/08 06:57:35;;;;;;;9.43;8.43;;;;;;;;;;2069320;28;20498;-74
2023/09/08 06:58:54;;;;;;;9.75;8.65;;;;;;;;;;2070487;28;20030;-73
2023/09/08 07:00:14;;;;;;;9.00;8.10;;;;;;;;;;2066903;28;20029;-70
2023/09/08 07:01:35;;;;;;;16.17;8.52;;;;;;;;;;2069705;28;20398;-69
2023/09/08 07:02:54;;;;;;;13.68;9.00;;;;;;;;;;2070512;28;20022;-71
2023/09/08 07:04:13;;;;;;;9.02;8.20;;;;;;;;;;2072788;28;20444;-74
2023/09/08 07:05:32;;;;;;;9.40;7.78;;;;;;;;;;2068845;28;20483;-74
2023/09/08 07:06:54;;;;;;;13.40;8.32;;;;;;;;;;2070445;28;20102;-74
2023/09/08 07:08:13;;;;;;;8.85;7.95;;;;;;;;;;2069919;28;20579;-74
2023/09/08 07:09:33;;;;;;;11.18;7.55;;;;;;;;;;2071297;28;20059;-68
2023/09/08 07:10:53;;;;;;;11.15;8.23;;;;;;;;;;2070352;28;20405;-74
2023/09/08 07:12:12;;;;;;;8.70;7.90;;;;;;;;;;2068692;28;20026;-74
2023/09/08 07:13:31;;;;;;;8.32;7.63;;;;;;;;;;2071864;28;20034;-74
2023/09/08 07:14:50;;;;;;;9.13;7.78;;;;;;;;;;2068394;28;20029;-74
2023/09/08 07:16:09;;;;;;;14.18;8.05;;;;;;;;;;2068382;28;20037;-71
2023/09/08 07:17:28;;;;;;;8.25;7.38;;;;;;;;;;2070449;28;20034;-74
2023/09/08 07:18:47;;;;;;;9.15;8.05;;;;;;;;;;2071020;28;20065;-74
2023/09/08 07:20:06;;;;;;;7.93;7.25;;;;;;;;;;2070365;28;20053;-71
2023/09/08 07:21:24;;;;;;;8.80;7.57;;;;;;;;;;2068796;28;20034;-74
2023/09/08 07:22:43;;;;;;;8.38;7.57;;;;;;;;;;2071567;28;20026;-74
2023/09/08 07:24:02;;;;;;;10.40;7.63;;;;;;;;;;2069592;28;20033;-71
2023/09/08 07:25:21;;;;;;;9.60;7.85;;;;;;;;;;2068924;28;20049;-70
2023/09/08 07:26:40;;;;;;;8.38;7.63;;;;;;;;;;2062358;28;20061;-74
2023/09/08 07:28:00;;;;;;;8.48;7.68;;;;;;;;;;2066189;28;20479;-73
2023/09/08 07:29:19;;;;;;;8.02;7.22;;;;;;;;;;2066553;28;20046;-72
2023/09/08 07:30:38;;;;;;;10.40;6.97;;;;;;;;;;2070991;28;20062;-74
2023/09/08 07:31:56;;;;;;;8.13;7.43;;;;;;;;;;2059740;28;20422;-73
2023/09/08 07:33:15;;;;;;;9.75;7.38;;;;;;;;;;2067931;28;20462;-71
2023/09/08 07:34:34;;;;;;;7.93;7.22;;;;;;;;;;2062125;28;20038;-70
2023/09/08 07:35:53;;;;;;;10.90;6.60;;;;;;;;;;2059362;28;20498;-70
2023/09/08 07:37:12;;;;;;;9.73;6.90;;;;;;;;;;2061949;28;20034;-74
2023/09/08 07:38:31;;;;;;;9.40;7.32;;;;;;;;;;2064061;28;20070;-71
2023/09/08 07:39:51;;;;;;;8.50;7.22;;;;;;;;;;2069676;28;20399;-74
2023/09/08 07:41:10;;;;;;;7.38;6.75;;;;;;;;;;2071087;28;20030;-72
2023/09/08 07:42:29;;;;;;;15.52;7.60;;;;;;;;;;2063805;28;20026;-74
2023/09/08 07:43:49;;;;;;;8.00;7.30;;;;;;;;;;2067829;28;20034;-74
2023/09/08 07:45:09;;;;;;;8.00;7.25;;;;;;;;;;2069597;28;20105;-74
2023/09/08 07:46:28;;;;;;;7.28;6.57;;;;;;;;;;2069495;28;20042;-74
2023/09/08 07:47:47;;;;;;;9.65;7.07;;;;;;;;;;2067948;28;20410;-70
2023/09/08 07:49:06;;;;;;;7.40;6.80;;;;;;;;;;2068026;28;20034;-73
2023/09/08 07:50:27;;;;;;;8.90;8.00;;;;;;;;;;2070467;28;20033;-74
2023/09/08 07:51:46;;;;;;;9.32;7.15;;;;;;;;;;2068673;28;20026;-74